デリー の空港の天気 - METARとTAF

インディラ・ガンディー国際空港 ( VIDP / DEL ) - インド デリー
飛行場実況気象(Metar)
観測時間04/21 22:00 IST (04/21 16:30 UTC)
風向・風速静穏 0m/s
視程3000m
天気現象煙霧
少しの雲 雲底高度 1220m
気温32℃
湿度31%
気圧1006hPa
METARVIDP 211630Z 00000KT 3000 HZ FEW040 32/13 Q1006 NOSIG
過去の天気等 Google飛行場航空写真 Wunderground天気予報

過去48時間のMETAR

飛行場予報(TAF)
発表時間: 4/21 19:30 IST (4/21 14:00 UTC)
予報対象時間: 21日20時 IST ~ 22日5時 IST
風向・風速北西 4m/s
視程3500m
天気現象煙霧
少しの雲 雲底高度 3050m
22日3時 IST ~ 22日5時 IST に徐々に
風向・風速西 3m/s
視程2500m
天気現象煙霧
TAF VIDP 211400Z 2115/2124 32007KT 3500 HZ FEW100
BECMG 2122/2124 27005KT 2500 HZ